sensor_id;sensor_type;location;lat;lon;timestamp;pressure;altitude;pressure_sealevel;temperature
42673;BMP280;28284;46.514;30.724;2023-07-13T00:02:14;100850.47;;;24.12
42673;BMP280;28284;46.514;30.724;2023-07-13T00:04:39;100857.09;;;24.15
42673;BMP280;28284;46.514;30.724;2023-07-13T00:07:04;100864.91;;;24.16
42673;BMP280;28284;46.514;30.724;2023-07-13T00:09:30;100854.19;;;24.18
42673;BMP280;28284;46.514;30.724;2023-07-13T00:11:56;100849.88;;;24.17
42673;BMP280;28284;46.514;30.724;2023-07-13T00:14:22;100860.94;;;24.17
42673;BMP280;28284;46.514;30.724;2023-07-13T00:16:47;100853.41;;;24.18
42673;BMP280;28284;46.514;30.724;2023-07-13T00:19:13;100847.53;;;24.16
42673;BMP280;28284;46.514;30.724;2023-07-13T00:21:39;100845.53;;;24.16
42673;BMP280;28284;46.514;30.724;2023-07-13T00:24:05;100838.81;;;24.17
42673;BMP280;28284;46.514;30.724;2023-07-13T00:26:30;100842.59;;;24.20
42673;BMP280;28284;46.514;30.724;2023-07-13T00:28:57;100839.69;;;24.23
42673;BMP280;28284;46.514;30.724;2023-07-13T00:31:23;100843.22;;;24.24
42673;BMP280;28284;46.514;30.724;2023-07-13T00:33:48;100841.34;;;24.30
42673;BMP280;28284;46.514;30.724;2023-07-13T00:36:14;100847.47;;;24.34
42673;BMP280;28284;46.514;30.724;2023-07-13T00:38:39;100843.47;;;24.35
42673;BMP280;28284;46.514;30.724;2023-07-13T00:41:05;100839.00;;;24.37
42673;BMP280;28284;46.514;30.724;2023-07-13T00:43:30;100835.28;;;24.40
42673;BMP280;28284;46.514;30.724;2023-07-13T00:48:21;100836.19;;;24.46
42673;BMP280;28284;46.514;30.724;2023-07-13T00:50:48;100833.25;;;24.50
42673;BMP280;28284;46.514;30.724;2023-07-13T00:53:15;100830.78;;;24.52
42673;BMP280;28284;46.514;30.724;2023-07-13T00:55:40;100828.78;;;24.52
42673;BMP280;28284;46.514;30.724;2023-07-13T00:58:06;100826.34;;;24.54
42673;BMP280;28284;46.514;30.724;2023-07-13T01:00:32;100830.63;;;24.55
42673;BMP280;28284;46.514;30.724;2023-07-13T01:02:58;100832.47;;;24.58
42673;BMP280;28284;46.514;30.724;2023-07-13T01:05:23;100825.19;;;24.60
42673;BMP280;28284;46.514;30.724;2023-07-13T01:07:49;100831.81;;;24.63
42673;BMP280;28284;46.514;30.724;2023-07-13T01:10:17;100823.03;;;24.64
42673;BMP280;28284;46.514;30.724;2023-07-13T01:12:42;100830.09;;;24.65
42673;BMP280;28284;46.514;30.724;2023-07-13T01:17:51;100819.78;;;24.66
42673;BMP280;28284;46.514;30.724;2023-07-13T01:20:17;100817.00;;;24.66
42673;BMP280;28284;46.514;30.724;2023-07-13T01:22:42;100823.63;;;24.68
42673;BMP280;28284;46.514;30.724;2023-07-13T01:25:07;100823.13;;;24.70
42673;BMP280;28284;46.514;30.724;2023-07-13T01:27:33;100822.19;;;24.73
42673;BMP280;28284;46.514;30.724;2023-07-13T01:29:59;100817.75;;;24.75
42673;BMP280;28284;46.514;30.724;2023-07-13T01:32:28;100818.31;;;24.79
42673;BMP280;28284;46.514;30.724;2023-07-13T01:34:56;100812.56;;;24.83
42673;BMP280;28284;46.514;30.724;2023-07-13T01:37:22;100816.88;;;24.84
42673;BMP280;28284;46.514;30.724;2023-07-13T01:39:48;100811.66;;;24.86
42673;BMP280;28284;46.514;30.724;2023-07-13T01:42:13;100813.94;;;24.87
42673;BMP280;28284;46.514;30.724;2023-07-13T01:44:39;100806.72;;;24.90
42673;BMP280;28284;46.514;30.724;2023-07-13T01:47:04;100803.94;;;24.90
42673;BMP280;28284;46.514;30.724;2023-07-13T01:49:29;100811.50;;;24.89
42673;BMP280;28284;46.514;30.724;2023-07-13T01:51:55;100805.75;;;24.93
42673;BMP280;28284;46.514;30.724;2023-07-13T01:54:20;100804.06;;;24.95
42673;BMP280;28284;46.514;30.724;2023-07-13T01:56:45;100802.34;;;24.98
42673;BMP280;28284;46.514;30.724;2023-07-13T01:59:10;100792.28;;;25.00
42673;BMP280;28284;46.514;30.724;2023-07-13T02:01:36;100803.22;;;25.04
42673;BMP280;28284;46.514;30.724;2023-07-13T02:04:02;100800.25;;;25.07
42673;BMP280;28284;46.514;30.724;2023-07-13T02:06:27;100802.09;;;25.10
42673;BMP280;28284;46.514;30.724;2023-07-13T02:08:52;100805.44;;;25.14
42673;BMP280;28284;46.514;30.724;2023-07-13T02:11:17;100801.25;;;25.18
42673;BMP280;28284;46.514;30.724;2023-07-13T02:13:43;100803.34;;;25.23
42673;BMP280;28284;46.514;30.724;2023-07-13T02:16:08;100799.31;;;25.24
42673;BMP280;28284;46.514;30.724;2023-07-13T02:18:33;100800.13;;;25.25
42673;BMP280;28284;46.514;30.724;2023-07-13T02:20:59;100807.75;;;25.30
42673;BMP280;28284;46.514;30.724;2023-07-13T02:23:24;100799.00;;;25.31
42673;BMP280;28284;46.514;30.724;2023-07-13T02:25:54;100795.72;;;25.33
42673;BMP280;28284;46.514;30.724;2023-07-13T02:28:19;100794.94;;;25.32
42673;BMP280;28284;46.514;30.724;2023-07-13T02:30:44;100790.94;;;25.33
42673;BMP280;28284;46.514;30.724;2023-07-13T02:33:10;100787.38;;;25.33
42673;BMP280;28284;46.514;30.724;2023-07-13T02:35:35;100788.16;;;25.33
42673;BMP280;28284;46.514;30.724;2023-07-13T02:38:00;100783.84;;;25.32
42673;BMP280;28284;46.514;30.724;2023-07-13T02:40:25;100777.09;;;25.33
42673;BMP280;28284;46.514;30.724;2023-07-13T02:42:51;100775.84;;;25.34
42673;BMP280;28284;46.514;30.724;2023-07-13T02:45:16;100773.66;;;25.38
42673;BMP280;28284;46.514;30.724;2023-07-13T02:47:41;100777.94;;;25.39
42673;BMP280;28284;46.514;30.724;2023-07-13T02:50:07;100773.94;;;25.40
42673;BMP280;28284;46.514;30.724;2023-07-13T02:52:33;100766.38;;;25.41
42673;BMP280;28284;46.514;30.724;2023-07-13T02:54:58;100772.69;;;25.41
42673;BMP280;28284;46.514;30.724;2023-07-13T02:57:23;100765.88;;;25.42
42673;BMP280;28284;46.514;30.724;2023-07-13T02:59:49;100774.19;;;25.42
42673;BMP280;28284;46.514;30.724;2023-07-13T03:02:15;100780.06;;;25.44
42673;BMP280;28284;46.514;30.724;2023-07-13T03:04:40;100777.47;;;25.41
42673;BMP280;28284;46.514;30.724;2023-07-13T03:07:06;100785.28;;;25.42
42673;BMP280;28284;46.514;30.724;2023-07-13T03:09:32;100776.19;;;25.42
42673;BMP280;28284;46.514;30.724;2023-07-13T03:11:58;100782.81;;;25.44
42673;BMP280;28284;46.514;30.724;2023-07-13T03:14:23;100773.81;;;25.49
42673;BMP280;28284;46.514;30.724;2023-07-13T03:16:48;100785.69;;;25.50
42673;BMP280;28284;46.514;30.724;2023-07-13T03:19:14;100790.59;;;25.55
42673;BMP280;28284;46.514;30.724;2023-07-13T03:21:39;100791.72;;;25.63
42673;BMP280;28284;46.514;30.724;2023-07-13T03:24:05;100793.09;;;25.67
42673;BMP280;28284;46.514;30.724;2023-07-13T03:26:30;100794.69;;;25.73
42673;BMP280;28284;46.514;30.724;2023-07-13T03:28:55;100784.91;;;25.78
42673;BMP280;28284;46.514;30.724;2023-07-13T03:31:22;100794.66;;;25.88
42673;BMP280;28284;46.514;30.724;2023-07-13T03:33:48;100796.59;;;25.96
42673;BMP280;28284;46.514;30.724;2023-07-13T03:36:18;100796.94;;;26.04
42673;BMP280;28284;46.514;30.724;2023-07-13T03:38:47;100795.19;;;26.06
42673;BMP280;28284;46.514;30.724;2023-07-13T03:41:13;100784.88;;;26.07
42673;BMP280;28284;46.514;30.724;2023-07-13T03:43:38;100786.16;;;26.06
42673;BMP280;28284;46.514;30.724;2023-07-13T03:46:03;100790.72;;;26.09
42673;BMP280;28284;46.514;30.724;2023-07-13T03:48:29;100792.25;;;26.10
42673;BMP280;28284;46.514;30.724;2023-07-13T03:50:54;100784.47;;;26.14
42673;BMP280;28284;46.514;30.724;2023-07-13T03:53:19;100777.81;;;26.25
42673;BMP280;28284;46.514;30.724;2023-07-13T03:55:44;100779.63;;;26.28
42673;BMP280;28284;46.514;30.724;2023-07-13T03:58:23;100785.41;;;26.25
42673;BMP280;28284;46.514;30.724;2023-07-13T04:00:49;100774.41;;;26.16
42673;BMP280;28284;46.514;30.724;2023-07-13T04:03:15;100779.19;;;26.16
42673;BMP280;28284;46.514;30.724;2023-07-13T04:05:41;100789.34;;;26.18
42673;BMP280;28284;46.514;30.724;2023-07-13T04:08:06;100779.59;;;26.23
42673;BMP280;28284;46.514;30.724;2023-07-13T04:10:32;100777.94;;;26.31
42673;BMP280;28284;46.514;30.724;2023-07-13T04:12:57;100774.25;;;26.39
42673;BMP280;28284;46.514;30.724;2023-07-13T04:15:22;100772.38;;;26.51
42673;BMP280;28284;46.514;30.724;2023-07-13T04:17:48;100778.28;;;26.78
42673;BMP280;28284;46.514;30.724;2023-07-13T04:20:13;100764.09;;;26.96
42673;BMP280;28284;46.514;30.724;2023-07-13T04:22:38;100772.44;;;27.46
42673;BMP280;28284;46.514;30.724;2023-07-13T04:25:04;100767.25;;;27.59
42673;BMP280;28284;46.514;30.724;2023-07-13T04:27:30;100763.53;;;27.42
42673;BMP280;28284;46.514;30.724;2023-07-13T04:29:55;100764.16;;;27.26
42673;BMP280;28284;46.514;30.724;2023-07-13T04:32:21;100759.28;;;27.22
42673;BMP280;28284;46.514;30.724;2023-07-13T04:34:46;100758.06;;;27.23
42673;BMP280;28284;46.514;30.724;2023-07-13T04:37:11;100766.94;;;27.26
42673;BMP280;28284;46.514;30.724;2023-07-13T04:39:36;100766.56;;;27.14
42673;BMP280;28284;46.514;30.724;2023-07-13T04:42:02;100757.09;;;27.06
42673;BMP280;28284;46.514;30.724;2023-07-13T04:44:28;100754.78;;;26.99
42673;BMP280;28284;46.514;30.724;2023-07-13T04:46:53;100768.13;;;26.95
42673;BMP280;28284;46.514;30.724;2023-07-13T04:49:18;100763.38;;;27.01
42673;BMP280;28284;46.514;30.724;2023-07-13T04:51:44;100765.44;;;27.06
42673;BMP280;28284;46.514;30.724;2023-07-13T04:54:09;100774.09;;;27.08
42673;BMP280;28284;46.514;30.724;2023-07-13T04:56:34;100771.19;;;27.22
42673;BMP280;28284;46.514;30.724;2023-07-13T04:58:59;100756.16;;;27.39
42673;BMP280;28284;46.514;30.724;2023-07-13T05:01:25;100758.16;;;27.64
42673;BMP280;28284;46.514;30.724;2023-07-13T05:03:50;100759.13;;;27.92
42673;BMP280;28284;46.514;30.724;2023-07-13T05:06:15;100790.97;;;28.22
42673;BMP280;28284;46.514;30.724;2023-07-13T05:08:41;100781.03;;;28.62
42673;BMP280;28284;46.514;30.724;2023-07-13T05:11:06;100781.31;;;28.75
42673;BMP280;28284;46.514;30.724;2023-07-13T05:13:34;100790.47;;;28.86
42673;BMP280;28284;46.514;30.724;2023-07-13T05:16:00;100767.13;;;28.84
42673;BMP280;28284;46.514;30.724;2023-07-13T05:18:26;100771.53;;;29.12
42673;BMP280;28284;46.514;30.724;2023-07-13T05:20:58;100783.97;;;29.49
42673;BMP280;28284;46.514;30.724;2023-07-13T05:23:24;100796.38;;;30.64
42673;BMP280;28284;46.514;30.724;2023-07-13T05:25:49;100798.66;;;31.88
42673;BMP280;28284;46.514;30.724;2023-07-13T05:28:15;100803.16;;;32.93
42673;BMP280;28284;46.514;30.724;2023-07-13T05:30:44;100815.13;;;33.69
42673;BMP280;28284;46.514;30.724;2023-07-13T05:33:10;100816.88;;;34.57
42673;BMP280;28284;46.514;30.724;2023-07-13T05:35:35;100822.59;;;35.05
42673;BMP280;28284;46.514;30.724;2023-07-13T05:38:00;100824.88;;;35.26
42673;BMP280;28284;46.514;30.724;2023-07-13T05:40:26;100809.13;;;34.70
42673;BMP280;28284;46.514;30.724;2023-07-13T05:42:51;100827.06;;;34.47
42673;BMP280;28284;46.514;30.724;2023-07-13T05:45:16;100826.47;;;34.94
42673;BMP280;28284;46.514;30.724;2023-07-13T05:47:41;100823.19;;;35.03
42673;BMP280;28284;46.514;30.724;2023-07-13T05:50:07;100837.25;;;34.50
42673;BMP280;28284;46.514;30.724;2023-07-13T05:52:32;100826.88;;;34.19
42673;BMP280;28284;46.514;30.724;2023-07-13T05:54:57;100840.44;;;34.21
42673;BMP280;28284;46.514;30.724;2023-07-13T05:57:23;100842.88;;;34.24
42673;BMP280;28284;46.514;30.724;2023-07-13T05:59:48;100826.56;;;34.35
42673;BMP280;28284;46.514;30.724;2023-07-13T06:02:13;100848.94;;;34.87
42673;BMP280;28284;46.514;30.724;2023-07-13T06:04:38;100841.91;;;35.41
42673;BMP280;28284;46.514;30.724;2023-07-13T06:07:04;100843.31;;;36.10
42673;BMP280;28284;46.514;30.724;2023-07-13T06:09:29;100851.78;;;36.75
42673;BMP280;28284;46.514;30.724;2023-07-13T06:11:54;100848.63;;;37.45
42673;BMP280;28284;46.514;30.724;2023-07-13T06:14:20;100847.41;;;37.93
42673;BMP280;28284;46.514;30.724;2023-07-13T06:16:45;100860.22;;;37.94
42673;BMP280;28284;46.514;30.724;2023-07-13T06:19:10;100869.06;;;37.98
42673;BMP280;28284;46.514;30.724;2023-07-13T06:21:36;100860.84;;;37.70
42673;BMP280;28284;46.514;30.724;2023-07-13T06:24:01;100864.81;;;37.52
42673;BMP280;28284;46.514;30.724;2023-07-13T06:26:26;100840.72;;;36.99
42673;BMP280;28284;46.514;30.724;2023-07-13T06:28:52;100856.94;;;36.34
42673;BMP280;28284;46.514;30.724;2023-07-13T06:31:18;100862.91;;;36.23
42673;BMP280;28284;46.514;30.724;2023-07-13T06:33:44;100868.03;;;35.97
42673;BMP280;28284;46.514;30.724;2023-07-13T06:36:09;100868.03;;;35.62
42673;BMP280;28284;46.514;30.724;2023-07-13T06:38:37;100865.69;;;35.33
42673;BMP280;28284;46.514;30.724;2023-07-13T06:41:03;100862.97;;;34.67
42673;BMP280;28284;46.514;30.724;2023-07-13T06:43:28;100857.94;;;34.01
42673;BMP280;28284;46.514;30.724;2023-07-13T06:45:55;100851.63;;;33.56
42673;BMP280;28284;46.514;30.724;2023-07-13T06:48:21;100857.78;;;32.92
42673;BMP280;28284;46.514;30.724;2023-07-13T06:50:47;100857.84;;;32.69
42673;BMP280;28284;46.514;30.724;2023-07-13T06:53:13;100849.81;;;32.60
42673;BMP280;28284;46.514;30.724;2023-07-13T06:55:38;100851.50;;;32.68
42673;BMP280;28284;46.514;30.724;2023-07-13T06:58:04;100853.75;;;32.51
42673;BMP280;28284;46.514;30.724;2023-07-13T07:00:30;100837.47;;;32.50
42673;BMP280;28284;46.514;30.724;2023-07-13T07:02:55;100844.84;;;32.05
42673;BMP280;28284;46.514;30.724;2023-07-13T07:05:20;100837.59;;;31.68
42673;BMP280;28284;46.514;30.724;2023-07-13T07:07:47;100854.16;;;31.42
42673;BMP280;28284;46.514;30.724;2023-07-13T07:10:12;100850.53;;;31.12
42673;BMP280;28284;46.514;30.724;2023-07-13T07:12:38;100854.13;;;31.08
42673;BMP280;28284;46.514;30.724;2023-07-13T07:15:03;100845.41;;;31.16
42673;BMP280;28284;46.514;30.724;2023-07-13T07:17:28;100856.34;;;31.14
42673;BMP280;28284;46.514;30.724;2023-07-13T07:19:54;100841.00;;;31.26
42673;BMP280;28284;46.514;30.724;2023-07-13T07:22:20;100856.38;;;31.49
42673;BMP280;28284;46.514;30.724;2023-07-13T07:24:45;100845.75;;;31.42
42673;BMP280;28284;46.514;30.724;2023-07-13T07:27:10;100847.28;;;31.38
42673;BMP280;28284;46.514;30.724;2023-07-13T07:29:36;100844.88;;;31.18
42673;BMP280;28284;46.514;30.724;2023-07-13T07:32:01;100844.28;;;31.30
42673;BMP280;28284;46.514;30.724;2023-07-13T07:34:26;100835.81;;;31.41
42673;BMP280;28284;46.514;30.724;2023-07-13T07:36:52;100844.41;;;31.78
42673;BMP280;28284;46.514;30.724;2023-07-13T07:39:18;100834.13;;;32.09
42673;BMP280;28284;46.514;30.724;2023-07-13T07:41:43;100856.78;;;32.53
42673;BMP280;28284;46.514;30.724;2023-07-13T07:44:08;100856.50;;;32.33
42673;BMP280;28284;46.514;30.724;2023-07-13T07:46:35;100846.91;;;32.05
42673;BMP280;28284;46.514;30.724;2023-07-13T07:49:03;100833.41;;;32.27
42673;BMP280;28284;46.514;30.724;2023-07-13T07:51:29;100854.00;;;32.30
42673;BMP280;28284;46.514;30.724;2023-07-13T07:53:54;100837.47;;;32.50
42673;BMP280;28284;46.514;30.724;2023-07-13T07:56:19;100851.22;;;32.30
42673;BMP280;28284;46.514;30.724;2023-07-13T07:58:44;100856.13;;;32.66
42673;BMP280;28284;46.514;30.724;2023-07-13T08:01:10;100852.16;;;32.56
42673;BMP280;28284;46.514;30.724;2023-07-13T08:03:35;100857.09;;;32.50
42673;BMP280;28284;46.514;30.724;2023-07-13T08:06:00;100860.25;;;32.41
42673;BMP280;28284;46.514;30.724;2023-07-13T08:08:26;100881.13;;;32.46
42673;BMP280;28284;46.514;30.724;2023-07-13T08:10:51;100859.16;;;32.68
42673;BMP280;28284;46.514;30.724;2023-07-13T08:13:17;100875.75;;;32.84
42673;BMP280;28284;46.514;30.724;2023-07-13T08:15:42;100847.84;;;32.92
42673;BMP280;28284;46.514;30.724;2023-07-13T08:18:07;100847.03;;;33.09
42673;BMP280;28284;46.514;30.724;2023-07-13T08:20:36;100869.06;;;32.87
42673;BMP280;28284;46.514;30.724;2023-07-13T08:23:01;100870.66;;;32.64
42673;BMP280;28284;46.514;30.724;2023-07-13T08:25:27;100878.59;;;32.42
42673;BMP280;28284;46.514;30.724;2023-07-13T08:27:52;100866.84;;;32.44
42673;BMP280;28284;46.514;30.724;2023-07-13T08:30:17;100845.72;;;32.43
42673;BMP280;28284;46.514;30.724;2023-07-13T08:32:43;100867.53;;;32.49
42673;BMP280;28284;46.514;30.724;2023-07-13T08:35:08;100870.75;;;32.95
42673;BMP280;28284;46.514;30.724;2023-07-13T08:37:33;100877.63;;;33.44
42673;BMP280;28284;46.514;30.724;2023-07-13T08:39:59;100869.94;;;33.63
42673;BMP280;28284;46.514;30.724;2023-07-13T08:42:39;100860.28;;;33.71
42673;BMP280;28284;46.514;30.724;2023-07-13T08:47:39;100863.88;;;33.28
42673;BMP280;28284;46.514;30.724;2023-07-13T08:50:08;100850.38;;;33.26
42673;BMP280;28284;46.514;30.724;2023-07-13T08:52:36;100864.00;;;33.35
42673;BMP280;28284;46.514;30.724;2023-07-13T08:55:09;100862.09;;;33.56
42673;BMP280;28284;46.514;30.724;2023-07-13T08:57:37;100858.28;;;33.84
42673;BMP280;28284;46.514;30.724;2023-07-13T09:00:03;100857.94;;;34.01
42673;BMP280;28284;46.514;30.724;2023-07-13T09:05:08;100852.84;;;33.74
42673;BMP280;28284;46.514;30.724;2023-07-13T09:10:18;100849.38;;;32.92
42673;BMP280;28284;46.514;30.724;2023-07-13T09:12:51;100849.38;;;32.92
42673;BMP280;28284;46.514;30.724;2023-07-13T09:15:31;100869.16;;;32.82
42673;BMP280;28284;46.514;30.724;2023-07-13T09:18:05;100846.03;;;32.76
42673;BMP280;28284;46.514;30.724;2023-07-13T09:20:42;100865.59;;;32.63
42673;BMP280;28284;46.514;30.724;2023-07-13T09:23:11;100856.34;;;32.68
42673;BMP280;28284;46.514;30.724;2023-07-13T09:25:38;100850.56;;;32.79
42673;BMP280;28284;46.514;30.724;2023-07-13T09:33:23;100847.41;;;32.69
42673;BMP280;28284;46.514;30.724;2023-07-13T09:35:49;100845.72;;;32.79
42673;BMP280;28284;46.514;30.724;2023-07-13T09:38:16;100839.66;;;32.93
42673;BMP280;28284;46.514;30.724;2023-07-13T09:43:28;100836.28;;;33.13
42673;BMP280;28284;46.514;30.724;2023-07-13T09:45:53;100834.72;;;32.81
42673;BMP280;28284;46.514;30.724;2023-07-13T09:48:19;100840.69;;;32.17
42673;BMP280;28284;46.514;30.724;2023-07-13T09:50:45;100841.13;;;31.98
42673;BMP280;28284;46.514;30.724;2023-07-13T09:53:11;100845.25;;;31.91
42673;BMP280;28284;46.514;30.724;2023-07-13T09:55:38;100808.91;;;31.86
42673;BMP280;28284;46.514;30.724;2023-07-13T09:58:04;100842.91;;;31.71
42673;BMP280;28284;46.514;30.724;2023-07-13T10:00:30;100847.75;;;31.71
42673;BMP280;28284;46.514;30.724;2023-07-13T10:03:00;100820.56;;;31.66
42673;BMP280;28284;46.514;30.724;2023-07-13T10:05:25;100828.38;;;31.73
42673;BMP280;28284;46.514;30.724;2023-07-13T10:07:50;100817.75;;;31.66
42673;BMP280;28284;46.514;30.724;2023-07-13T10:10:20;100823.56;;;31.44
42673;BMP280;28284;46.514;30.724;2023-07-13T10:12:46;100815.19;;;31.39
42673;BMP280;28284;46.514;30.724;2023-07-13T10:15:21;100820.13;;;31.27
42673;BMP280;28284;46.514;30.724;2023-07-13T10:17:47;100806.94;;;31.22
42673;BMP280;28284;46.514;30.724;2023-07-13T10:20:13;100806.59;;;30.97
42673;BMP280;28284;46.514;30.724;2023-07-13T10:25:46;100803.06;;;30.96
42673;BMP280;28284;46.514;30.724;2023-07-13T10:27:54;100803.09;;;30.85
42673;BMP280;28284;46.514;30.724;2023-07-13T10:30:22;100804.69;;;30.81
42673;BMP280;28284;46.514;30.724;2023-07-13T10:32:50;100785.19;;;30.64
42673;BMP280;28284;46.514;30.724;2023-07-13T10:35:17;100782.53;;;30.37
42673;BMP280;28284;46.514;30.724;2023-07-13T10:40:16;100758.50;;;30.02
42673;BMP280;28284;46.514;30.724;2023-07-13T10:42:44;100763.34;;;29.90
42673;BMP280;28284;46.514;30.724;2023-07-13T10:45:14;100756.53;;;29.75
42673;BMP280;28284;46.514;30.724;2023-07-13T10:47:40;100744.63;;;29.69
42673;BMP280;28284;46.514;30.724;2023-07-13T10:50:06;100748.19;;;29.64
42673;BMP280;28284;46.514;30.724;2023-07-13T10:52:41;100760.09;;;29.75
42673;BMP280;28284;46.514;30.724;2023-07-13T10:55:29;100753.97;;;29.88
42673;BMP280;28284;46.514;30.724;2023-07-13T10:57:52;100753.44;;;29.84
42673;BMP280;28284;46.514;30.724;2023-07-13T11:00:18;100747.38;;;29.74
42673;BMP280;28284;46.514;30.724;2023-07-13T11:02:43;100753.75;;;29.75
42673;BMP280;28284;46.514;30.724;2023-07-13T11:07:53;100744.59;;;29.80
42673;BMP280;28284;46.514;30.724;2023-07-13T11:15:55;100764.34;;;29.93
42673;BMP280;28284;46.514;30.724;2023-07-13T11:18:22;100763.34;;;29.85
42673;BMP280;28284;46.514;30.724;2023-07-13T11:20:48;100739.28;;;29.60
42673;BMP280;28284;46.514;30.724;2023-07-13T11:25:41;100740.06;;;29.44
42673;BMP280;28284;46.514;30.724;2023-07-13T11:30:46;100741.59;;;29.34
42673;BMP280;28284;46.514;30.724;2023-07-13T11:33:16;100751.50;;;29.24
42673;BMP280;28284;46.514;30.724;2023-07-13T11:35:47;100730.19;;;29.27
42673;BMP280;28284;46.514;30.724;2023-07-13T11:38:24;100749.19;;;29.28
42673;BMP280;28284;46.514;30.724;2023-07-13T11:40:53;100743.13;;;29.30
42673;BMP280;28284;46.514;30.724;2023-07-13T11:43:18;100733.44;;;29.31
42673;BMP280;28284;46.514;30.724;2023-07-13T11:45:44;100739.06;;;29.47
42673;BMP280;28284;46.514;30.724;2023-07-13T11:48:19;100727.63;;;29.62
42673;BMP280;28284;46.514;30.724;2023-07-13T11:51:09;100722.47;;;29.76
42673;BMP280;28284;46.514;30.724;2023-07-13T11:53:39;100718.94;;;29.70
42673;BMP280;28284;46.514;30.724;2023-07-13T11:56:05;100715.66;;;29.72
42673;BMP280;28284;46.514;30.724;2023-07-13T11:58:31;100711.13;;;29.64
42673;BMP280;28284;46.514;30.724;2023-07-13T12:00:58;100695.09;;;29.69
42673;BMP280;28284;46.514;30.724;2023-07-13T12:03:24;100711.59;;;29.73
42673;BMP280;28284;46.514;30.724;2023-07-13T12:06:00;100712.63;;;29.70
42673;BMP280;28284;46.514;30.724;2023-07-13T12:08:26;100705.53;;;29.69
42673;BMP280;28284;46.514;30.724;2023-07-13T12:11:11;100700.69;;;29.69
42673;BMP280;28284;46.514;30.724;2023-07-13T12:13:39;100696.59;;;29.70
42673;BMP280;28284;46.514;30.724;2023-07-13T12:16:15;100700.22;;;29.55
42673;BMP280;28284;46.514;30.724;2023-07-13T12:18:41;100711.88;;;29.48
42673;BMP280;28284;46.514;30.724;2023-07-13T12:21:10;100706.31;;;29.53
42673;BMP280;28284;46.514;30.724;2023-07-13T12:23:38;100702.47;;;29.56
42673;BMP280;28284;46.514;30.724;2023-07-13T12:26:04;100697.69;;;29.46
42673;BMP280;28284;46.514;30.724;2023-07-13T12:28:37;100697.41;;;29.49
42673;BMP280;28284;46.514;30.724;2023-07-13T12:31:04;100699.69;;;29.62
42673;BMP280;28284;46.514;30.724;2023-07-13T12:33:30;100687.25;;;29.57
42673;BMP280;28284;46.514;30.724;2023-07-13T12:35:57;100692.06;;;29.62
42673;BMP280;28284;46.514;30.724;2023-07-13T12:38:24;100692.03;;;29.67
42673;BMP280;28284;46.514;30.724;2023-07-13T12:40:50;100688.22;;;29.70
42673;BMP280;28284;46.514;30.724;2023-07-13T12:43:16;100677.31;;;29.72
42673;BMP280;28284;46.514;30.724;2023-07-13T12:45:55;100684.94;;;29.72
42673;BMP280;28284;46.514;30.724;2023-07-13T12:48:21;100673.28;;;29.68
42673;BMP280;28284;46.514;30.724;2023-07-13T12:50:47;100667.94;;;29.65
42673;BMP280;28284;46.514;30.724;2023-07-13T12:53:23;100664.66;;;29.61
42673;BMP280;28284;46.514;30.724;2023-07-13T12:55:53;100670.72;;;29.65
42673;BMP280;28284;46.514;30.724;2023-07-13T12:58:36;100653.97;;;29.70
42673;BMP280;28284;46.514;30.724;2023-07-13T13:01:02;100656.00;;;29.80
42673;BMP280;28284;46.514;30.724;2023-07-13T13:03:32;100659.22;;;29.90
42673;BMP280;28284;46.514;30.724;2023-07-13T13:08:24;100651.56;;;30.01
42673;BMP280;28284;46.514;30.724;2023-07-13T13:10:50;100654.34;;;30.07
42673;BMP280;28284;46.514;30.724;2023-07-13T13:13:15;100648.94;;;30.14
42673;BMP280;28284;46.514;30.724;2023-07-13T13:15:40;100659.84;;;30.17
42673;BMP280;28284;46.514;30.724;2023-07-13T13:18:14;100665.22;;;30.16
42673;BMP280;28284;46.514;30.724;2023-07-13T13:20:39;100655.56;;;30.17
42673;BMP280;28284;46.514;30.724;2023-07-13T13:23:09;100665.44;;;30.17
42673;BMP280;28284;46.514;30.724;2023-07-13T13:25:36;100657.84;;;30.18
42673;BMP280;28284;46.514;30.724;2023-07-13T13:28:01;100662.66;;;30.17
42673;BMP280;28284;46.514;30.724;2023-07-13T13:30:27;100640.06;;;30.16
42673;BMP280;28284;46.514;30.724;2023-07-13T13:32:52;100628.88;;;30.16
42673;BMP280;28284;46.514;30.724;2023-07-13T13:35:19;100626.56;;;30.14
42673;BMP280;28284;46.514;30.724;2023-07-13T13:37:45;100628.16;;;30.10
42673;BMP280;28284;46.514;30.724;2023-07-13T13:40:14;100631.50;;;30.03
42673;BMP280;28284;46.514;30.724;2023-07-13T13:42:40;100635.50;;;30.13
42673;BMP280;28284;46.514;30.724;2023-07-13T13:45:07;100632.88;;;30.25
42673;BMP280;28284;46.514;30.724;2023-07-13T13:47:32;100632.84;;;30.31
42673;BMP280;28284;46.514;30.724;2023-07-13T13:49:58;100626.00;;;30.26
42673;BMP280;28284;46.514;30.724;2023-07-13T13:52:24;100631.06;;;30.33
42673;BMP280;28284;46.514;30.724;2023-07-13T13:54:50;100642.19;;;30.39
42673;BMP280;28284;46.514;30.724;2023-07-13T13:57:20;100634.38;;;30.32
42673;BMP280;28284;46.514;30.724;2023-07-13T13:59:46;100655.97;;;30.31
42673;BMP280;28284;46.514;30.724;2023-07-13T14:02:19;100652.69;;;30.33
42673;BMP280;28284;46.514;30.724;2023-07-13T14:04:47;100655.94;;;30.37
42673;BMP280;28284;46.514;30.724;2023-07-13T14:07:13;100660.53;;;30.34
42673;BMP280;28284;46.514;30.724;2023-07-13T14:09:38;100659.03;;;30.33
42673;BMP280;28284;46.514;30.724;2023-07-13T14:12:03;100651.88;;;30.38
42673;BMP280;28284;46.514;30.724;2023-07-13T14:14:29;100649.28;;;30.45
42673;BMP280;28284;46.514;30.724;2023-07-13T14:16:55;100640.41;;;30.41
42673;BMP280;28284;46.514;30.724;2023-07-13T14:19:22;100621.22;;;30.27
42673;BMP280;28284;46.514;30.724;2023-07-13T14:21:47;100628.00;;;30.31
42673;BMP280;28284;46.514;30.724;2023-07-13T14:24:14;100610.94;;;30.40